sensor_id;sensor_type;location;lat;lon;timestamp;P1;durP1;ratioP1;P2;durP2;ratioP2
71288;SDS011;59068;52.502;9.860;2023-06-22T00:00:59;14.27;;;13.27;;
71288;SDS011;59068;52.502;9.860;2023-06-22T00:03:25;14.37;;;13.27;;
71288;SDS011;59068;52.502;9.860;2023-06-22T00:05:51;14.20;;;13.20;;
71288;SDS011;59068;52.502;9.860;2023-06-22T00:08:17;13.83;;;12.73;;
71288;SDS011;59068;52.502;9.860;2023-06-22T00:10:43;14.07;;;13.07;;
71288;SDS011;59068;52.502;9.860;2023-06-22T00:13:09;13.80;;;12.80;;
71288;SDS011;59068;52.502;9.860;2023-06-22T00:15:36;13.97;;;12.87;;
71288;SDS011;59068;52.502;9.860;2023-06-22T00:18:02;13.73;;;12.83;;
71288;SDS011;59068;52.502;9.860;2023-06-22T00:20:27;12.83;;;12.03;;
71288;SDS011;59068;52.502;9.860;2023-06-22T00:22:56;13.60;;;12.47;;
71288;SDS011;59068;52.502;9.860;2023-06-22T00:25:22;12.87;;;11.87;;
71288;SDS011;59068;52.502;9.860;2023-06-22T00:27:48;12.93;;;12.00;;
71288;SDS011;59068;52.502;9.860;2023-06-22T00:30:13;13.30;;;12.30;;
71288;SDS011;59068;52.502;9.860;2023-06-22T00:32:40;12.93;;;11.90;;
71288;SDS011;59068;52.502;9.860;2023-06-22T00:35:05;13.23;;;12.20;;
71288;SDS011;59068;52.502;9.860;2023-06-22T00:37:31;12.43;;;11.43;;
71288;SDS011;59068;52.502;9.860;2023-06-22T00:39:56;12.93;;;11.93;;
71288;SDS011;59068;52.502;9.860;2023-06-22T00:42:22;12.40;;;11.43;;
71288;SDS011;59068;52.502;9.860;2023-06-22T00:44:47;12.93;;;11.93;;
71288;SDS011;59068;52.502;9.860;2023-06-22T00:47:14;13.00;;;12.00;;
71288;SDS011;59068;52.502;9.860;2023-06-22T00:49:41;12.13;;;11.23;;
71288;SDS011;59068;52.502;9.860;2023-06-22T00:52:07;12.90;;;11.90;;
71288;SDS011;59068;52.502;9.860;2023-06-22T00:54:34;12.93;;;11.93;;
71288;SDS011;59068;52.502;9.860;2023-06-22T00:57:01;12.50;;;11.50;;
71288;SDS011;59068;52.502;9.860;2023-06-22T00:59:26;12.43;;;11.53;;
71288;SDS011;59068;52.502;9.860;2023-06-22T01:01:52;12.47;;;11.50;;
71288;SDS011;59068;52.502;9.860;2023-06-22T01:04:18;11.87;;;11.07;;
71288;SDS011;59068;52.502;9.860;2023-06-22T01:06:58;12.63;;;11.67;;
71288;SDS011;59068;52.502;9.860;2023-06-22T01:09:28;12.77;;;11.87;;
71288;SDS011;59068;52.502;9.860;2023-06-22T01:12:04;13.07;;;12.10;;
71288;SDS011;59068;52.502;9.860;2023-06-22T01:17:01;12.27;;;11.27;;
71288;SDS011;59068;52.502;9.860;2023-06-22T01:19:44;12.70;;;11.60;;
71288;SDS011;59068;52.502;9.860;2023-06-22T01:22:15;12.53;;;11.43;;
71288;SDS011;59068;52.502;9.860;2023-06-22T01:25:28;11.53;;;10.70;;
71288;SDS011;59068;52.502;9.860;2023-06-22T01:30:02;10.90;;;10.00;;
71288;SDS011;59068;52.502;9.860;2023-06-22T01:32:31;10.90;;;10.10;;
71288;SDS011;59068;52.502;9.860;2023-06-22T01:34:58;11.03;;;10.33;;
71288;SDS011;59068;52.502;9.860;2023-06-22T01:37:26;10.67;;;9.77;;
71288;SDS011;59068;52.502;9.860;2023-06-22T01:39:53;11.30;;;10.50;;
71288;SDS011;59068;52.502;9.860;2023-06-22T01:42:19;10.57;;;9.77;;
71288;SDS011;59068;52.502;9.860;2023-06-22T01:44:44;10.80;;;9.90;;
71288;SDS011;59068;52.502;9.860;2023-06-22T01:47:10;11.00;;;10.10;;
71288;SDS011;59068;52.502;9.860;2023-06-22T01:49:38;10.63;;;9.83;;
71288;SDS011;59068;52.502;9.860;2023-06-22T01:52:04;10.43;;;9.63;;
71288;SDS011;59068;52.502;9.860;2023-06-22T01:54:30;10.13;;;9.23;;
71288;SDS011;59068;52.502;9.860;2023-06-22T01:56:56;9.80;;;9.00;;
71288;SDS011;59068;52.502;9.860;2023-06-22T01:59:25;10.70;;;9.83;;
71288;SDS011;59068;52.502;9.860;2023-06-22T02:02:15;10.23;;;9.53;;
71288;SDS011;59068;52.502;9.860;2023-06-22T02:04:43;10.13;;;9.23;;
71288;SDS011;59068;52.502;9.860;2023-06-22T02:07:12;9.70;;;9.00;;
71288;SDS011;59068;52.502;9.860;2023-06-22T02:09:40;10.30;;;9.57;;
71288;SDS011;59068;52.502;9.860;2023-06-22T02:12:08;10.47;;;9.67;;
71288;SDS011;59068;52.502;9.860;2023-06-22T02:14:35;9.70;;;8.97;;
71288;SDS011;59068;52.502;9.860;2023-06-22T02:17:01;9.83;;;9.13;;
71288;SDS011;59068;52.502;9.860;2023-06-22T02:19:27;9.53;;;8.80;;
71288;SDS011;59068;52.502;9.860;2023-06-22T02:21:53;9.43;;;8.73;;
71288;SDS011;59068;52.502;9.860;2023-06-22T02:24:18;9.73;;;9.03;;
71288;SDS011;59068;52.502;9.860;2023-06-22T02:26:43;9.33;;;8.60;;
71288;SDS011;59068;52.502;9.860;2023-06-22T02:29:10;9.97;;;9.27;;
71288;SDS011;59068;52.502;9.860;2023-06-22T02:31:35;10.37;;;9.67;;
71288;SDS011;59068;52.502;9.860;2023-06-22T02:34:01;9.63;;;8.93;;
71288;SDS011;59068;52.502;9.860;2023-06-22T02:36:26;9.90;;;9.20;;
71288;SDS011;59068;52.502;9.860;2023-06-22T02:38:52;9.90;;;8.97;;
71288;SDS011;59068;52.502;9.860;2023-06-22T02:41:19;9.93;;;9.10;;
71288;SDS011;59068;52.502;9.860;2023-06-22T02:43:45;9.83;;;9.03;;
71288;SDS011;59068;52.502;9.860;2023-06-22T02:46:11;9.27;;;8.67;;
71288;SDS011;59068;52.502;9.860;2023-06-22T02:48:37;9.77;;;8.97;;
71288;SDS011;59068;52.502;9.860;2023-06-22T02:51:03;9.27;;;8.57;;
71288;SDS011;59068;52.502;9.860;2023-06-22T02:53:28;9.70;;;8.90;;
71288;SDS011;59068;52.502;9.860;2023-06-22T02:55:55;10.03;;;9.03;;
71288;SDS011;59068;52.502;9.860;2023-06-22T02:58:20;9.53;;;8.90;;
71288;SDS011;59068;52.502;9.860;2023-06-22T03:00:46;9.20;;;8.50;;
71288;SDS011;59068;52.502;9.860;2023-06-22T03:03:11;9.73;;;8.87;;
71288;SDS011;59068;52.502;9.860;2023-06-22T03:05:37;9.97;;;9.27;;
71288;SDS011;59068;52.502;9.860;2023-06-22T03:08:02;10.07;;;9.27;;
71288;SDS011;59068;52.502;9.860;2023-06-22T03:10:28;9.90;;;8.90;;
71288;SDS011;59068;52.502;9.860;2023-06-22T03:12:54;10.00;;;9.20;;
71288;SDS011;59068;52.502;9.860;2023-06-22T03:15:20;9.27;;;8.57;;
71288;SDS011;59068;52.502;9.860;2023-06-22T03:17:45;8.93;;;8.33;;
71288;SDS011;59068;52.502;9.860;2023-06-22T03:20:11;10.00;;;9.20;;
71288;SDS011;59068;52.502;9.860;2023-06-22T03:22:40;9.17;;;8.37;;
71288;SDS011;59068;52.502;9.860;2023-06-22T03:25:07;9.20;;;8.60;;
71288;SDS011;59068;52.502;9.860;2023-06-22T03:27:37;9.87;;;9.13;;
71288;SDS011;59068;52.502;9.860;2023-06-22T03:30:03;10.53;;;9.70;;
71288;SDS011;59068;52.502;9.860;2023-06-22T03:32:29;9.70;;;8.93;;
71288;SDS011;59068;52.502;9.860;2023-06-22T03:34:54;9.97;;;9.27;;
71288;SDS011;59068;52.502;9.860;2023-06-22T03:37:23;9.73;;;8.97;;
71288;SDS011;59068;52.502;9.860;2023-06-22T03:39:49;9.80;;;9.10;;
71288;SDS011;59068;52.502;9.860;2023-06-22T03:42:14;10.03;;;9.33;;
71288;SDS011;59068;52.502;9.860;2023-06-22T03:44:40;10.50;;;9.70;;
71288;SDS011;59068;52.502;9.860;2023-06-22T03:47:05;10.87;;;9.87;;
71288;SDS011;59068;52.502;9.860;2023-06-22T03:49:32;10.13;;;9.40;;
71288;SDS011;59068;52.502;9.860;2023-06-22T03:51:58;10.37;;;9.67;;
71288;SDS011;59068;52.502;9.860;2023-06-22T03:54:23;10.93;;;10.13;;
71288;SDS011;59068;52.502;9.860;2023-06-22T03:56:48;10.83;;;10.00;;
71288;SDS011;59068;52.502;9.860;2023-06-22T03:59:14;10.23;;;9.43;;
71288;SDS011;59068;52.502;9.860;2023-06-22T04:01:39;10.33;;;9.40;;
71288;SDS011;59068;52.502;9.860;2023-06-22T04:04:05;10.37;;;9.60;;
71288;SDS011;59068;52.502;9.860;2023-06-22T04:06:30;9.97;;;9.27;;
71288;SDS011;59068;52.502;9.860;2023-06-22T04:08:56;10.97;;;10.07;;
71288;SDS011;59068;52.502;9.860;2023-06-22T04:11:21;10.40;;;9.70;;
71288;SDS011;59068;52.502;9.860;2023-06-22T04:13:46;10.13;;;9.40;;
71288;SDS011;59068;52.502;9.860;2023-06-22T04:16:13;9.30;;;8.57;;
71288;SDS011;59068;52.502;9.860;2023-06-22T04:18:39;10.07;;;9.37;;
71288;SDS011;59068;52.502;9.860;2023-06-22T04:21:04;9.93;;;9.20;;
71288;SDS011;59068;52.502;9.860;2023-06-22T04:23:29;10.40;;;9.60;;
71288;SDS011;59068;52.502;9.860;2023-06-22T04:25:55;9.97;;;9.17;;
71288;SDS011;59068;52.502;9.860;2023-06-22T04:28:21;9.47;;;8.70;;
71288;SDS011;59068;52.502;9.860;2023-06-22T04:30:47;9.77;;;8.97;;
71288;SDS011;59068;52.502;9.860;2023-06-22T04:33:13;9.37;;;8.77;;
71288;SDS011;59068;52.502;9.860;2023-06-22T04:35:39;9.43;;;8.63;;
71288;SDS011;59068;52.502;9.860;2023-06-22T04:38:06;9.43;;;8.77;;
71288;SDS011;59068;52.502;9.860;2023-06-22T04:40:32;9.30;;;8.50;;
71288;SDS011;59068;52.502;9.860;2023-06-22T04:42:57;8.90;;;8.30;;
71288;SDS011;59068;52.502;9.860;2023-06-22T04:45:22;8.93;;;8.13;;
71288;SDS011;59068;52.502;9.860;2023-06-22T04:47:48;8.40;;;7.80;;
71288;SDS011;59068;52.502;9.860;2023-06-22T04:50:14;8.53;;;7.83;;
71288;SDS011;59068;52.502;9.860;2023-06-22T04:52:40;9.13;;;8.40;;
71288;SDS011;59068;52.502;9.860;2023-06-22T04:55:05;10.37;;;9.57;;
71288;SDS011;59068;52.502;9.860;2023-06-22T04:57:31;9.70;;;8.80;;
71288;SDS011;59068;52.502;9.860;2023-06-22T05:00:00;9.87;;;9.13;;
71288;SDS011;59068;52.502;9.860;2023-06-22T05:02:37;9.77;;;9.07;;
71288;SDS011;59068;52.502;9.860;2023-06-22T05:05:04;10.13;;;9.13;;
71288;SDS011;59068;52.502;9.860;2023-06-22T05:07:32;10.57;;;9.67;;
71288;SDS011;59068;52.502;9.860;2023-06-22T05:09:58;9.97;;;8.97;;
71288;SDS011;59068;52.502;9.860;2023-06-22T05:12:23;9.73;;;8.93;;
71288;SDS011;59068;52.502;9.860;2023-06-22T05:14:49;10.90;;;10.10;;
71288;SDS011;59068;52.502;9.860;2023-06-22T05:17:14;10.30;;;9.60;;
71288;SDS011;59068;52.502;9.860;2023-06-22T05:19:44;9.93;;;9.13;;
71288;SDS011;59068;52.502;9.860;2023-06-22T05:22:13;9.77;;;9.10;;
71288;SDS011;59068;52.502;9.860;2023-06-22T05:24:39;9.50;;;8.63;;
71288;SDS011;59068;52.502;9.860;2023-06-22T05:27:04;9.43;;;8.67;;
71288;SDS011;59068;52.502;9.860;2023-06-22T05:29:30;10.20;;;9.23;;
71288;SDS011;59068;52.502;9.860;2023-06-22T05:31:55;10.03;;;8.23;;
71288;SDS011;59068;52.502;9.860;2023-06-22T05:34:20;9.40;;;8.60;;
71288;SDS011;59068;52.502;9.860;2023-06-22T05:36:46;9.47;;;8.67;;
71288;SDS011;59068;52.502;9.860;2023-06-22T05:39:11;9.37;;;8.67;;
71288;SDS011;59068;52.502;9.860;2023-06-22T05:41:38;8.57;;;7.87;;
71288;SDS011;59068;52.502;9.860;2023-06-22T05:44:04;8.83;;;8.13;;
71288;SDS011;59068;52.502;9.860;2023-06-22T05:46:29;8.77;;;8.17;;
71288;SDS011;59068;52.502;9.860;2023-06-22T05:48:54;8.63;;;7.93;;
71288;SDS011;59068;52.502;9.860;2023-06-22T05:51:20;8.90;;;8.30;;
71288;SDS011;59068;52.502;9.860;2023-06-22T05:53:45;8.60;;;7.93;;
71288;SDS011;59068;52.502;9.860;2023-06-22T05:56:14;8.90;;;8.20;;
71288;SDS011;59068;52.502;9.860;2023-06-22T05:58:40;8.87;;;8.23;;
71288;SDS011;59068;52.502;9.860;2023-06-22T06:01:05;8.60;;;7.80;;
71288;SDS011;59068;52.502;9.860;2023-06-22T06:03:30;8.17;;;7.50;;
71288;SDS011;59068;52.502;9.860;2023-06-22T06:05:56;7.80;;;7.30;;
71288;SDS011;59068;52.502;9.860;2023-06-22T06:08:21;7.43;;;6.83;;
71288;SDS011;59068;52.502;9.860;2023-06-22T06:10:46;6.97;;;6.43;;
71288;SDS011;59068;52.502;9.860;2023-06-22T06:13:12;7.20;;;6.60;;
71288;SDS011;59068;52.502;9.860;2023-06-22T06:15:37;7.53;;;6.80;;
71288;SDS011;59068;52.502;9.860;2023-06-22T06:18:03;7.23;;;6.63;;
71288;SDS011;59068;52.502;9.860;2023-06-22T06:20:31;6.70;;;6.13;;
71288;SDS011;59068;52.502;9.860;2023-06-22T06:22:56;7.10;;;6.60;;
71288;SDS011;59068;52.502;9.860;2023-06-22T06:25:22;6.67;;;6.17;;
71288;SDS011;59068;52.502;9.860;2023-06-22T06:27:48;6.13;;;5.57;;
71288;SDS011;59068;52.502;9.860;2023-06-22T06:30:15;5.87;;;5.37;;
71288;SDS011;59068;52.502;9.860;2023-06-22T06:32:42;5.27;;;4.90;;
71288;SDS011;59068;52.502;9.860;2023-06-22T06:35:10;5.53;;;5.00;;
71288;SDS011;59068;52.502;9.860;2023-06-22T06:37:36;5.67;;;5.17;;
71288;SDS011;59068;52.502;9.860;2023-06-22T06:40:06;5.43;;;5.03;;
71288;SDS011;59068;52.502;9.860;2023-06-22T06:42:38;5.40;;;4.90;;
71288;SDS011;59068;52.502;9.860;2023-06-22T06:45:15;5.40;;;4.47;;
71288;SDS011;59068;52.502;9.860;2023-06-22T06:47:41;5.20;;;4.80;;
71288;SDS011;59068;52.502;9.860;2023-06-22T06:50:07;5.57;;;5.17;;
71288;SDS011;59068;52.502;9.860;2023-06-22T06:52:33;5.10;;;4.70;;
71288;SDS011;59068;52.502;9.860;2023-06-22T06:54:58;4.77;;;4.47;;
71288;SDS011;59068;52.502;9.860;2023-06-22T06:57:24;4.80;;;4.50;;
71288;SDS011;59068;52.502;9.860;2023-06-22T06:59:53;4.87;;;4.50;;
71288;SDS011;59068;52.502;9.860;2023-06-22T07:02:19;5.57;;;5.17;;
71288;SDS011;59068;52.502;9.860;2023-06-22T07:04:45;5.73;;;4.93;;
71288;SDS011;59068;52.502;9.860;2023-06-22T07:07:11;5.13;;;4.83;;
71288;SDS011;59068;52.502;9.860;2023-06-22T07:09:37;5.60;;;5.17;;
71288;SDS011;59068;52.502;9.860;2023-06-22T07:12:02;4.97;;;4.60;;
71288;SDS011;59068;52.502;9.860;2023-06-22T07:14:28;5.37;;;4.97;;
71288;SDS011;59068;52.502;9.860;2023-06-22T07:16:53;5.90;;;5.40;;
71288;SDS011;59068;52.502;9.860;2023-06-22T07:19:24;6.27;;;5.20;;
71288;SDS011;59068;52.502;9.860;2023-06-22T07:21:50;5.10;;;4.60;;
71288;SDS011;59068;52.502;9.860;2023-06-22T07:24:15;5.77;;;5.27;;
71288;SDS011;59068;52.502;9.860;2023-06-22T07:26:41;5.53;;;5.10;;
71288;SDS011;59068;52.502;9.860;2023-06-22T07:29:10;6.07;;;5.57;;
71288;SDS011;59068;52.502;9.860;2023-06-22T07:31:35;6.53;;;6.00;;
71288;SDS011;59068;52.502;9.860;2023-06-22T07:34:01;6.13;;;5.53;;
71288;SDS011;59068;52.502;9.860;2023-06-22T07:36:27;6.00;;;5.60;;
71288;SDS011;59068;52.502;9.860;2023-06-22T07:38:55;5.83;;;5.43;;
71288;SDS011;59068;52.502;9.860;2023-06-22T07:41:20;6.10;;;5.50;;
71288;SDS011;59068;52.502;9.860;2023-06-22T07:43:45;6.33;;;5.83;;
71288;SDS011;59068;52.502;9.860;2023-06-22T07:46:11;5.50;;;5.10;;
71288;SDS011;59068;52.502;9.860;2023-06-22T07:48:37;5.90;;;5.40;;
71288;SDS011;59068;52.502;9.860;2023-06-22T07:51:02;6.00;;;5.40;;
71288;SDS011;59068;52.502;9.860;2023-06-22T07:53:28;5.77;;;5.37;;
71288;SDS011;59068;52.502;9.860;2023-06-22T07:55:53;6.83;;;6.10;;
71288;SDS011;59068;52.502;9.860;2023-06-22T07:58:18;6.20;;;5.70;;
71288;SDS011;59068;52.502;9.860;2023-06-22T08:00:45;7.00;;;6.40;;
71288;SDS011;59068;52.502;9.860;2023-06-22T08:03:10;5.80;;;5.50;;
71288;SDS011;59068;52.502;9.860;2023-06-22T08:05:36;6.20;;;5.73;;
71288;SDS011;59068;52.502;9.860;2023-06-22T08:08:01;6.03;;;5.53;;
71288;SDS011;59068;52.502;9.860;2023-06-22T08:10:27;6.20;;;5.70;;
71288;SDS011;59068;52.502;9.860;2023-06-22T08:12:52;6.83;;;6.23;;
71288;SDS011;59068;52.502;9.860;2023-06-22T08:15:18;6.23;;;5.80;;
71288;SDS011;59068;52.502;9.860;2023-06-22T08:17:44;6.70;;;6.20;;
71288;SDS011;59068;52.502;9.860;2023-06-22T08:20:10;6.50;;;5.97;;
71288;SDS011;59068;52.502;9.860;2023-06-22T08:22:36;7.10;;;6.40;;
71288;SDS011;59068;52.502;9.860;2023-06-22T08:25:02;6.33;;;5.70;;
71288;SDS011;59068;52.502;9.860;2023-06-22T08:27:29;7.23;;;6.67;;
71288;SDS011;59068;52.502;9.860;2023-06-22T08:29:56;6.70;;;6.20;;
71288;SDS011;59068;52.502;9.860;2023-06-22T08:32:24;6.93;;;6.43;;
71288;SDS011;59068;52.502;9.860;2023-06-22T08:34:53;7.13;;;6.40;;
71288;SDS011;59068;52.502;9.860;2023-06-22T08:37:22;7.23;;;6.63;;
71288;SDS011;59068;52.502;9.860;2023-06-22T08:39:55;8.03;;;7.37;;
71288;SDS011;59068;52.502;9.860;2023-06-22T08:42:21;7.80;;;7.30;;
71288;SDS011;59068;52.502;9.860;2023-06-22T08:44:46;8.80;;;8.10;;
71288;SDS011;59068;52.502;9.860;2023-06-22T08:47:14;8.70;;;8.00;;
71288;SDS011;59068;52.502;9.860;2023-06-22T08:49:39;9.20;;;8.37;;
71288;SDS011;59068;52.502;9.860;2023-06-22T08:52:05;8.10;;;7.50;;
71288;SDS011;59068;52.502;9.860;2023-06-22T08:54:30;9.07;;;8.10;;
71288;SDS011;59068;52.502;9.860;2023-06-22T08:56:58;8.10;;;7.50;;
71288;SDS011;59068;52.502;9.860;2023-06-22T08:59:23;8.90;;;8.20;;
71288;SDS011;59068;52.502;9.860;2023-06-22T09:01:51;9.40;;;8.57;;
71288;SDS011;59068;52.502;9.860;2023-06-22T09:04:17;9.40;;;8.40;;
71288;SDS011;59068;52.502;9.860;2023-06-22T09:06:42;9.50;;;8.73;;
71288;SDS011;59068;52.502;9.860;2023-06-22T09:09:12;10.10;;;9.40;;
71288;SDS011;59068;52.502;9.860;2023-06-22T09:11:37;10.40;;;9.50;;
71288;SDS011;59068;52.502;9.860;2023-06-22T09:14:03;10.33;;;9.50;;
71288;SDS011;59068;52.502;9.860;2023-06-22T09:16:29;11.27;;;10.37;;
71288;SDS011;59068;52.502;9.860;2023-06-22T09:18:55;10.87;;;10.03;;
71288;SDS011;59068;52.502;9.860;2023-06-22T09:21:20;9.93;;;9.17;;
71288;SDS011;59068;52.502;9.860;2023-06-22T09:23:45;10.90;;;10.10;;
71288;SDS011;59068;52.502;9.860;2023-06-22T09:26:15;10.50;;;9.70;;
71288;SDS011;59068;52.502;9.860;2023-06-22T09:28:40;10.63;;;9.83;;
71288;SDS011;59068;52.502;9.860;2023-06-22T09:31:06;11.00;;;10.00;;
71288;SDS011;59068;52.502;9.860;2023-06-22T09:33:32;11.10;;;10.13;;
71288;SDS011;59068;52.502;9.860;2023-06-22T09:35:57;10.00;;;9.20;;
71288;SDS011;59068;52.502;9.860;2023-06-22T09:38:22;10.70;;;9.83;;
71288;SDS011;59068;52.502;9.860;2023-06-22T09:40:48;10.13;;;9.43;;
71288;SDS011;59068;52.502;9.860;2023-06-22T09:43:13;11.30;;;10.30;;
71288;SDS011;59068;52.502;9.860;2023-06-22T09:45:39;10.40;;;9.60;;
71288;SDS011;59068;52.502;9.860;2023-06-22T09:48:04;10.37;;;9.57;;
71288;SDS011;59068;52.502;9.860;2023-06-22T09:50:30;10.63;;;9.57;;
71288;SDS011;59068;52.502;9.860;2023-06-22T09:52:55;10.80;;;10.00;;
71288;SDS011;59068;52.502;9.860;2023-06-22T09:55:21;10.30;;;9.50;;
71288;SDS011;59068;52.502;9.860;2023-06-22T09:57:46;11.50;;;10.60;;
71288;SDS011;59068;52.502;9.860;2023-06-22T10:00:12;11.10;;;10.30;;
71288;SDS011;59068;52.502;9.860;2023-06-22T10:02:39;10.30;;;9.50;;
71288;SDS011;59068;52.502;9.860;2023-06-22T10:05:05;10.77;;;9.87;;
71288;SDS011;59068;52.502;9.860;2023-06-22T10:07:30;10.13;;;9.40;;
71288;SDS011;59068;52.502;9.860;2023-06-22T10:09:55;10.73;;;9.90;;
71288;SDS011;59068;52.502;9.860;2023-06-22T10:12:21;10.40;;;9.60;;
71288;SDS011;59068;52.502;9.860;2023-06-22T10:14:46;10.20;;;9.53;;
71288;SDS011;59068;52.502;9.860;2023-06-22T10:17:11;10.30;;;9.40;;
71288;SDS011;59068;52.502;9.860;2023-06-22T10:19:37;9.80;;;9.00;;
71288;SDS011;59068;52.502;9.860;2023-06-22T10:22:04;9.87;;;9.10;;
71288;SDS011;59068;52.502;9.860;2023-06-22T10:24:30;10.17;;;9.27;;
71288;SDS011;59068;52.502;9.860;2023-06-22T10:26:55;9.63;;;8.73;;
71288;SDS011;59068;52.502;9.860;2023-06-22T10:29:20;9.67;;;8.90;;
71288;SDS011;59068;52.502;9.860;2023-06-22T10:31:46;10.67;;;9.80;;
71288;SDS011;59068;52.502;9.860;2023-06-22T10:34:11;9.73;;;8.93;;
71288;SDS011;59068;52.502;9.860;2023-06-22T10:36:36;9.27;;;8.47;;
71288;SDS011;59068;52.502;9.860;2023-06-22T10:39:03;10.10;;;9.33;;
71288;SDS011;59068;52.502;9.860;2023-06-22T10:41:28;10.43;;;9.57;;
71288;SDS011;59068;52.502;9.860;2023-06-22T10:43:57;9.63;;;8.83;;
71288;SDS011;59068;52.502;9.860;2023-06-22T10:46:25;9.53;;;8.57;;
71288;SDS011;59068;52.502;9.860;2023-06-22T10:48:51;10.27;;;9.37;;
71288;SDS011;59068;52.502;9.860;2023-06-22T10:51:19;9.00;;;8.40;;
71288;SDS011;59068;52.502;9.860;2023-06-22T10:53:44;9.23;;;8.53;;
71288;SDS011;59068;52.502;9.860;2023-06-22T10:56:09;9.00;;;8.40;;
71288;SDS011;59068;52.502;9.860;2023-06-22T10:58:36;8.97;;;8.27;;
71288;SDS011;59068;52.502;9.860;2023-06-22T11:01:01;8.67;;;8.07;;
71288;SDS011;59068;52.502;9.860;2023-06-22T11:03:28;9.70;;;8.83;;
71288;SDS011;59068;52.502;9.860;2023-06-22T11:05:53;9.53;;;8.83;;
71288;SDS011;59068;52.502;9.860;2023-06-22T11:08:19;9.73;;;9.03;;
71288;SDS011;59068;52.502;9.860;2023-06-22T11:10:44;9.43;;;8.70;;
71288;SDS011;59068;52.502;9.860;2023-06-22T11:13:09;9.37;;;8.47;;
71288;SDS011;59068;52.502;9.860;2023-06-22T11:15:35;9.63;;;8.90;;
71288;SDS011;59068;52.502;9.860;2023-06-22T11:18:01;9.90;;;8.83;;
71288;SDS011;59068;52.502;9.860;2023-06-22T11:20:26;9.27;;;8.57;;
71288;SDS011;59068;52.502;9.860;2023-06-22T11:22:52;9.50;;;8.70;;
71288;SDS011;59068;52.502;9.860;2023-06-22T11:25:17;10.07;;;9.27;;
71288;SDS011;59068;52.502;9.860;2023-06-22T11:27:42;9.57;;;8.83;;
71288;SDS011;59068;52.502;9.860;2023-06-22T11:30:08;9.40;;;8.80;;
71288;SDS011;59068;52.502;9.860;2023-06-22T11:32:34;9.67;;;8.90;;
71288;SDS011;59068;52.502;9.860;2023-06-22T11:34:59;9.13;;;8.53;;
71288;SDS011;59068;52.502;9.860;2023-06-22T11:37:25;9.00;;;8.40;;
71288;SDS011;59068;52.502;9.860;2023-06-22T11:39:50;9.17;;;8.57;;
71288;SDS011;59068;52.502;9.860;2023-06-22T11:42:16;9.60;;;8.90;;
71288;SDS011;59068;52.502;9.860;2023-06-22T11:44:42;10.33;;;9.60;;
71288;SDS011;59068;52.502;9.860;2023-06-22T11:47:08;9.20;;;8.47;;
71288;SDS011;59068;52.502;9.860;2023-06-22T11:49:33;9.67;;;8.90;;
71288;SDS011;59068;52.502;9.860;2023-06-22T11:51:59;10.70;;;9.83;;
71288;SDS011;59068;52.502;9.860;2023-06-22T11:54:24;9.53;;;8.77;;
71288;SDS011;59068;52.502;9.860;2023-06-22T11:56:49;10.10;;;9.40;;
71288;SDS011;59068;52.502;9.860;2023-06-22T11:59:15;10.43;;;9.63;;
71288;SDS011;59068;52.502;9.860;2023-06-22T12:01:40;10.03;;;9.13;;
71288;SDS011;59068;52.502;9.860;2023-06-22T12:04:05;10.00;;;9.20;;
71288;SDS011;59068;52.502;9.860;2023-06-22T12:06:31;9.17;;;8.57;;
71288;SDS011;59068;52.502;9.860;2023-06-22T12:08:58;9.27;;;8.57;;
71288;SDS011;59068;52.502;9.860;2023-06-22T12:11:23;9.97;;;9.27;;
71288;SDS011;59068;52.502;9.860;2023-06-22T12:13:49;9.87;;;9.07;;
71288;SDS011;59068;52.502;9.860;2023-06-22T12:16:14;9.83;;;9.03;;
71288;SDS011;59068;52.502;9.860;2023-06-22T12:18:39;9.63;;;8.93;;
71288;SDS011;59068;52.502;9.860;2023-06-22T12:21:04;9.10;;;8.50;;
71288;SDS011;59068;52.502;9.860;2023-06-22T12:23:30;9.10;;;8.47;;
71288;SDS011;59068;52.502;9.860;2023-06-22T12:25:55;9.90;;;9.20;;
71288;SDS011;59068;52.502;9.860;2023-06-22T12:28:20;9.03;;;8.23;;
71288;SDS011;59068;52.502;9.860;2023-06-22T12:30:46;9.57;;;8.87;;
71288;SDS011;59068;52.502;9.860;2023-06-22T12:33:11;8.33;;;7.73;;
71288;SDS011;59068;52.502;9.860;2023-06-22T12:35:36;8.50;;;7.90;;
71288;SDS011;59068;52.502;9.860;2023-06-22T12:38:02;9.60;;;8.80;;
71288;SDS011;59068;52.502;9.860;2023-06-22T12:40:28;9.00;;;8.30;;
71288;SDS011;59068;52.502;9.860;2023-06-22T12:42:53;9.23;;;8.53;;
71288;SDS011;59068;52.502;9.860;2023-06-22T12:45:19;9.37;;;8.67;;
71288;SDS011;59068;52.502;9.860;2023-06-22T12:47:46;8.97;;;8.37;;
71288;SDS011;59068;52.502;9.860;2023-06-22T12:50:11;9.10;;;8.37;;
71288;SDS011;59068;52.502;9.860;2023-06-22T12:52:37;8.93;;;8.33;;
71288;SDS011;59068;52.502;9.860;2023-06-22T12:55:06;9.23;;;8.53;;
71288;SDS011;59068;52.502;9.860;2023-06-22T12:57:31;9.33;;;8.73;;
71288;SDS011;59068;52.502;9.860;2023-06-22T12:59:57;9.67;;;9.07;;
71288;SDS011;59068;52.502;9.860;2023-06-22T13:02:23;9.73;;;9.13;;
71288;SDS011;59068;52.502;9.860;2023-06-22T13:04:48;8.70;;;8.20;;
71288;SDS011;59068;52.502;9.860;2023-06-22T13:07:14;9.70;;;9.00;;
71288;SDS011;59068;52.502;9.860;2023-06-22T13:09:39;9.80;;;9.07;;
71288;SDS011;59068;52.502;9.860;2023-06-22T13:12:05;9.03;;;8.43;;
71288;SDS011;59068;52.502;9.860;2023-06-22T13:14:30;9.50;;;8.60;;
71288;SDS011;59068;52.502;9.860;2023-06-22T13:16:56;10.03;;;9.40;;
71288;SDS011;59068;52.502;9.860;2023-06-22T13:19:21;9.93;;;9.03;;
71288;SDS011;59068;52.502;9.860;2023-06-22T13:21:46;9.97;;;9.37;;
71288;SDS011;59068;52.502;9.860;2023-06-22T13:24:12;9.70;;;9.00;;
71288;SDS011;59068;52.502;9.860;2023-06-22T13:26:37;9.30;;;8.70;;
71288;SDS011;59068;52.502;9.860;2023-06-22T13:29:02;9.60;;;8.80;;
71288;SDS011;59068;52.502;9.860;2023-06-22T13:31:28;10.33;;;9.57;;
71288;SDS011;59068;52.502;9.860;2023-06-22T13:33:53;9.27;;;8.67;;
71288;SDS011;59068;52.502;9.860;2023-06-22T13:36:19;10.30;;;9.40;;
71288;SDS011;59068;52.502;9.860;2023-06-22T13:38:44;9.70;;;9.00;;
71288;SDS011;59068;52.502;9.860;2023-06-22T13:41:10;10.63;;;9.90;;
71288;SDS011;59068;52.502;9.860;2023-06-22T13:43:35;9.87;;;9.23;;
71288;SDS011;59068;52.502;9.860;2023-06-22T13:46:00;10.17;;;9.47;;
71288;SDS011;59068;52.502;9.860;2023-06-22T13:48:26;10.70;;;10.00;;
71288;SDS011;59068;52.502;9.860;2023-06-22T13:50:53;10.43;;;9.73;;
71288;SDS011;59068;52.502;9.860;2023-06-22T13:53:18;11.47;;;10.67;;
71288;SDS011;59068;52.502;9.860;2023-06-22T13:55:44;10.83;;;10.03;;
71288;SDS011;59068;52.502;9.860;2023-06-22T13:58:09;10.60;;;9.87;;
71288;SDS011;59068;52.502;9.860;2023-06-22T14:00:34;12.27;;;11.27;;
71288;SDS011;59068;52.502;9.860;2023-06-22T14:03:00;11.03;;;10.23;;
71288;SDS011;59068;52.502;9.860;2023-06-22T14:05:25;10.97;;;10.27;;
71288;SDS011;59068;52.502;9.860;2023-06-22T14:07:50;11.80;;;10.87;;
71288;SDS011;59068;52.502;9.860;2023-06-22T14:10:16;11.27;;;10.57;;
71288;SDS011;59068;52.502;9.860;2023-06-22T14:12:41;11.83;;;11.03;;
71288;SDS011;59068;52.502;9.860;2023-06-22T14:15:07;11.27;;;10.37;;
71288;SDS011;59068;52.502;9.860;2023-06-22T14:17:32;11.10;;;10.20;;
71288;SDS011;59068;52.502;9.860;2023-06-22T14:19:58;11.23;;;10.27;;
71288;SDS011;59068;52.502;9.860;2023-06-22T14:22:23;11.27;;;10.47;;
71288;SDS011;59068;52.502;9.860;2023-06-22T14:24:48;11.33;;;10.43;;
71288;SDS011;59068;52.502;9.860;2023-06-22T14:27:14;10.97;;;10.17;;
71288;SDS011;59068;52.502;9.860;2023-06-22T14:29:40;10.27;;;9.57;;
71288;SDS011;59068;52.502;9.860;2023-06-22T14:32:06;10.97;;;9.83;;
71288;SDS011;59068;52.502;9.860;2023-06-22T14:34:35;10.07;;;9.20;;
71288;SDS011;59068;52.502;9.860;2023-06-22T14:37:04;10.17;;;9.47;;
71288;SDS011;59068;52.502;9.860;2023-06-22T14:39:30;10.07;;;9.37;;